createdAt,value
2019-03-15T00:02:13.630Z,4.83
2019-03-15T00:04:44.098Z,3.50
2019-03-15T00:07:15.477Z,5.00
2019-03-15T00:09:46.196Z,3.53
2019-03-15T00:12:16.428Z,14.10
2019-03-15T00:14:46.642Z,1.50
2019-03-15T00:17:16.894Z,3.80
2019-03-15T00:19:47.277Z,12.13
2019-03-15T00:22:17.696Z,12.87
2019-03-15T00:24:47.927Z,12.07
2019-03-15T00:27:18.034Z,9.30
2019-03-15T00:29:48.952Z,3.93
2019-03-15T00:32:19.553Z,4.30
2019-03-15T00:34:49.643Z,14.20
2019-03-15T00:37:20.551Z,5.33
2019-03-15T00:39:50.704Z,5.30
2019-03-15T00:42:21.013Z,2.23
2019-03-15T00:44:51.496Z,5.63
2019-03-15T00:47:21.644Z,3.60
2019-03-15T00:49:51.719Z,6.87
2019-03-15T00:52:22.390Z,5.77
2019-03-15T00:54:52.536Z,4.57
2019-03-15T00:57:22.648Z,6.97
2019-03-15T00:59:53.096Z,3.47
2019-03-15T01:02:23.186Z,4.50
2019-03-15T01:04:53.517Z,11.50
2019-03-15T01:07:23.648Z,8.40
2019-03-15T01:09:54.212Z,4.07
2019-03-15T01:12:24.889Z,3.23
2019-03-15T01:14:55.013Z,6.93
2019-03-15T01:17:26.238Z,8.80
2019-03-15T01:19:56.664Z,7.20
2019-03-15T01:22:27.298Z,6.07
2019-03-15T01:24:58.049Z,6.20
2019-03-15T01:27:28.128Z,13.03
2019-03-15T01:29:58.264Z,5.00
2019-03-15T01:32:28.721Z,3.50
2019-03-15T01:34:58.844Z,5.37
2019-03-15T01:37:29.765Z,10.00
2019-03-15T01:40:00.813Z,12.60
2019-03-15T01:42:31.269Z,6.93
2019-03-15T01:45:02.056Z,9.50
2019-03-15T01:47:32.153Z,2.27
2019-03-15T01:50:03.020Z,2.83
2019-03-15T01:52:33.724Z,6.23
2019-03-15T01:55:03.854Z,1.67
2019-03-15T01:57:34.032Z,8.80
2019-03-15T02:00:05.105Z,5.37
2019-03-15T02:02:36.592Z,5.47
2019-03-15T02:05:08.155Z,6.60
2019-03-15T02:07:39.108Z,6.87
2019-03-15T02:10:10.982Z,6.07
2019-03-15T02:12:41.769Z,5.10
2019-03-15T02:15:12.613Z,3.00
2019-03-15T02:17:44.124Z,5.53
2019-03-15T02:20:15.112Z,7.23
2019-03-15T02:22:45.257Z,10.23
2019-03-15T02:25:15.477Z,2.40
2019-03-15T02:27:45.788Z,24.97
2019-03-15T02:30:15.955Z,6.87
2019-03-15T02:32:46.106Z,8.93
2019-03-15T02:35:16.302Z,7.73
2019-03-15T02:37:46.577Z,4.70
2019-03-15T02:40:16.783Z,6.00
2019-03-15T02:42:47.755Z,7.63
2019-03-15T02:45:19.400Z,6.43
2019-03-15T02:47:49.484Z,5.07
2019-03-15T02:50:20.074Z,4.50
2019-03-15T02:52:50.407Z,2.33
2019-03-15T02:55:21.389Z,8.10
2019-03-15T02:57:52.461Z,3.57
2019-03-15T03:00:22.574Z,6.63
2019-03-15T03:02:54.394Z,1.60
2019-03-15T03:05:24.983Z,2.50
2019-03-15T03:07:55.444Z,4.40
2019-03-15T03:10:25.505Z,3.13
2019-03-15T03:12:55.803Z,2.00
2019-03-15T03:15:25.984Z,3.43
2019-03-15T03:17:57.261Z,3.50
2019-03-15T03:20:28.264Z,5.27
2019-03-15T03:22:59.134Z,3.13
2019-03-15T03:25:30.193Z,2.97
2019-03-15T03:28:01.616Z,7.70
2019-03-15T03:30:33.264Z,4.73
2019-03-15T03:33:03.410Z,2.93
2019-03-15T03:35:34.157Z,4.00
2019-03-15T03:38:04.539Z,8.83
2019-03-15T03:40:34.791Z,2.07
2019-03-15T03:43:05.281Z,3.23
2019-03-15T03:45:35.474Z,4.93
2019-03-15T03:48:05.617Z,5.67
2019-03-15T03:50:36.065Z,4.47
2019-03-15T03:53:06.539Z,2.47
2019-03-15T03:55:38.465Z,3.70
2019-03-15T03:58:09.611Z,7.67
2019-03-15T04:00:40.421Z,3.47
2019-03-15T04:03:11.453Z,5.33
2019-03-15T04:05:42.005Z,6.00
2019-03-15T04:08:13.527Z,4.80
2019-03-15T04:10:44.054Z,4.73
2019-03-15T04:13:15.831Z,2.07
2019-03-15T04:15:48.106Z,2.47
2019-03-15T04:18:19.824Z,4.07
2019-03-15T04:20:50.488Z,3.87
2019-03-15T04:23:21.659Z,2.73
2019-03-15T04:25:52.772Z,4.80
2019-03-15T04:28:23.101Z,2.07
2019-03-15T04:30:53.627Z,1.47
2019-03-15T04:33:24.620Z,9.43
2019-03-15T04:35:55.031Z,5.37
2019-03-15T04:38:25.181Z,3.53
2019-03-15T04:40:55.515Z,1.83
2019-03-15T04:43:26.115Z,2.57
2019-03-15T04:45:57.532Z,7.63
2019-03-15T04:48:27.730Z,2.63
2019-03-15T04:50:58.298Z,1.30
2019-03-15T04:53:28.652Z,4.27
2019-03-15T04:55:58.913Z,2.73
2019-03-15T04:58:29.527Z,7.23
2019-03-15T05:01:01.309Z,7.93
2019-03-15T05:03:33.115Z,14.63
2019-03-15T05:06:04.917Z,4.80
2019-03-15T05:08:35.766Z,4.20
2019-03-15T05:11:06.170Z,2.73
2019-03-15T05:13:36.348Z,3.43
2019-03-15T05:16:07.244Z,10.97
2019-03-15T05:18:37.639Z,1.03
2019-03-15T05:21:08.461Z,5.70
2019-03-15T05:23:38.769Z,5.63
2019-03-15T05:26:08.856Z,20.23
2019-03-15T05:28:38.965Z,15.73
2019-03-15T05:31:09.228Z,9.80
2019-03-15T05:33:40.020Z,22.70
2019-03-15T05:36:10.127Z,12.83
2019-03-15T05:38:40.440Z,5.63
2019-03-15T05:41:10.589Z,28.83
2019-03-15T05:43:40.700Z,7.70
2019-03-15T05:46:10.784Z,15.93
2019-03-15T05:48:41.537Z,10.67
2019-03-15T05:51:11.617Z,11.43
2019-03-15T05:53:41.857Z,7.60
2019-03-15T05:56:11.934Z,7.83
2019-03-15T05:58:42.421Z,81.27
2019-03-15T06:01:12.557Z,83.73
2019-03-15T06:03:48.301Z,36.57
2019-03-15T06:06:15.369Z,121.53
2019-03-15T06:08:45.517Z,136.77
2019-03-15T06:11:15.616Z,199.87
2019-03-15T06:13:45.720Z,55.10
2019-03-15T06:16:16.329Z,30.27
2019-03-15T06:18:46.517Z,23.93
2019-03-15T06:21:16.614Z,145.43
2019-03-15T06:23:46.920Z,524.37
2019-03-15T06:26:17.712Z,235.27
2019-03-15T06:28:50.055Z,336.13
2019-03-15T06:31:20.252Z,276.53
2019-03-15T06:33:50.965Z,143.90
2019-03-15T06:36:21.088Z,22.50
2019-03-15T06:38:51.153Z,32.40
2019-03-15T06:41:23.537Z,77.97
2019-03-15T06:43:54.143Z,37.87
2019-03-15T06:46:24.458Z,28.40
2019-03-15T06:48:55.088Z,11.00
2019-03-15T06:51:25.962Z,13.00
2019-03-15T06:54:10.604Z,78.20
2019-03-15T06:56:29.773Z,8.20
2019-03-15T06:58:59.921Z,23.43
2019-03-15T07:01:30.525Z,6.43
2019-03-15T07:04:00.810Z,283.43
2019-03-15T07:06:31.564Z,61.10
2019-03-15T07:09:02.201Z,248.60
2019-03-15T07:11:32.405Z,348.83
2019-03-15T07:14:03.498Z,182.87
2019-03-15T07:16:34.361Z,26.80
2019-03-15T07:19:04.970Z,20.20
2019-03-15T07:21:37.014Z,13.47
2019-03-15T07:24:07.730Z,25.17
2019-03-15T07:26:39.661Z,16.67
2019-03-15T07:29:10.272Z,15.63
2019-03-15T07:31:40.779Z,10.97
2019-03-15T07:34:13.827Z,18.10
2019-03-15T07:36:43.499Z,10.03
2019-03-15T07:39:13.677Z,17.63
2019-03-15T07:41:44.425Z,7.60
2019-03-15T07:44:14.520Z,24.27
2019-03-15T07:46:44.773Z,17.43
2019-03-15T07:49:14.870Z,5.43
2019-03-15T07:51:45.509Z,12.13
2019-03-15T07:54:15.728Z,18.73
2019-03-15T07:56:46.177Z,11.17
2019-03-15T07:59:16.713Z,10.50
2019-03-15T08:01:46.959Z,18.50
2019-03-15T08:04:17.673Z,10.67
2019-03-15T08:06:48.601Z,13.17
2019-03-15T08:09:18.740Z,13.63
2019-03-15T08:11:48.833Z,15.23
2019-03-15T08:14:19.046Z,10.03
2019-03-15T08:16:49.173Z,30.67
2019-03-15T08:19:19.320Z,9.23
2019-03-15T08:21:49.423Z,8.87
2019-03-15T08:24:19.573Z,4.70
2019-03-15T08:26:49.751Z,10.80
2019-03-15T08:29:20.120Z,9.70
2019-03-15T08:31:50.861Z,13.40
2019-03-15T08:34:21.085Z,7.00
2019-03-15T08:36:51.877Z,9.33
2019-03-15T08:39:22.536Z,9.10
2019-03-15T08:41:52.584Z,10.40
2019-03-15T08:44:23.102Z,11.53
2019-03-15T08:46:53.441Z,11.17
2019-03-15T08:49:23.678Z,5.60
2019-03-15T08:52:03.394Z,9.53
2019-03-15T08:54:26.073Z,6.30
2019-03-15T08:56:56.753Z,15.53
2019-03-15T08:59:26.864Z,5.40
2019-03-15T09:01:57.039Z,6.90
2019-03-15T09:04:27.378Z,10.00
2019-03-15T09:06:57.423Z,9.03
2019-03-15T09:09:27.453Z,6.90
2019-03-15T09:11:57.661Z,18.97
2019-03-15T09:14:27.611Z,12.63
2019-03-15T09:16:57.735Z,16.37
2019-03-15T09:19:27.802Z,12.37
2019-03-15T09:22:00.464Z,3.17
2019-03-15T09:24:29.573Z,14.50
2019-03-15T09:26:59.618Z,5.80
2019-03-15T09:29:29.833Z,13.60
2019-03-15T09:32:06.115Z,11.90
2019-03-15T09:34:31.500Z,8.00
2019-03-15T09:37:01.559Z,5.43
2019-03-15T09:39:31.790Z,12.93
2019-03-15T09:42:01.864Z,11.63
2019-03-15T09:44:31.836Z,6.23
2019-03-15T09:47:02.602Z,6.60
2019-03-15T09:49:32.790Z,11.43
2019-03-15T09:52:02.853Z,9.43
2019-03-15T09:54:32.917Z,19.57
2019-03-15T09:57:02.906Z,14.57
2019-03-15T09:59:32.884Z,18.20
2019-03-15T10:02:02.904Z,7.53
2019-03-15T10:04:35.892Z,7.50
2019-03-15T10:07:05.143Z,7.63
2019-03-15T10:09:45.725Z,7.10
2019-03-15T10:12:07.289Z,6.33
2019-03-15T10:14:37.304Z,19.07
2019-03-15T10:17:07.409Z,14.30
2019-03-15T10:19:37.525Z,7.93
2019-03-15T10:22:07.894Z,8.83
2019-03-15T10:24:38.307Z,9.30
2019-03-15T10:27:08.797Z,12.40
2019-03-15T10:29:38.777Z,12.63
2019-03-15T10:32:08.809Z,9.60
2019-03-15T10:34:39.083Z,9.83
2019-03-15T10:37:09.089Z,10.70
2019-03-15T10:39:39.101Z,11.03
2019-03-15T10:42:09.450Z,13.67
2019-03-15T10:44:39.601Z,20.93
2019-03-15T10:47:09.666Z,8.03
2019-03-15T10:49:39.828Z,14.93
2019-03-15T10:52:09.974Z,18.63
2019-03-15T10:54:40.045Z,17.30
2019-03-15T10:57:10.045Z,9.77
2019-03-15T10:59:40.489Z,13.60
2019-03-15T11:02:10.712Z,14.63
2019-03-15T11:04:40.711Z,19.03
2019-03-15T11:07:10.892Z,6.67
2019-03-15T11:09:41.046Z,9.40
2019-03-15T11:12:11.104Z,17.43
2019-03-15T11:14:41.553Z,8.50
2019-03-15T11:17:11.725Z,7.77
2019-03-15T11:19:41.816Z,8.47
2019-03-15T11:22:12.069Z,11.10
2019-03-15T11:24:43.735Z,28.43
2019-03-15T11:27:14.089Z,13.87
2019-03-15T11:29:44.378Z,16.73
2019-03-15T11:32:14.463Z,10.73
2019-03-15T11:34:44.689Z,14.37
2019-03-15T11:37:14.763Z,8.97
2019-03-15T11:39:44.921Z,13.47
2019-03-15T11:42:15.158Z,7.83
2019-03-15T11:44:45.630Z,5.67
2019-03-15T11:47:16.189Z,4.70
2019-03-15T11:49:46.149Z,9.20
2019-03-15T11:52:16.286Z,10.97
2019-03-15T11:54:49.596Z,4.73
2019-03-15T11:57:18.079Z,17.10
2019-03-15T11:59:48.048Z,14.23
2019-03-15T12:02:18.367Z,12.70
2019-03-15T12:04:48.437Z,4.77
2019-03-15T12:07:18.464Z,9.30
2019-03-15T12:09:48.482Z,10.53
2019-03-15T12:12:21.557Z,5.27
2019-03-15T12:14:50.176Z,11.87
2019-03-15T12:17:20.151Z,14.07
2019-03-15T12:19:50.297Z,23.33
2019-03-15T12:22:20.328Z,5.73
2019-03-15T12:24:50.354Z,14.07
2019-03-15T12:27:21.120Z,10.80
2019-03-15T12:29:51.177Z,9.70
2019-03-15T12:32:23.777Z,7.43
2019-03-15T12:34:52.997Z,5.80
2019-03-15T12:37:23.430Z,10.10
2019-03-15T12:39:53.866Z,11.50
2019-03-15T12:42:24.099Z,8.07
2019-03-15T12:44:54.570Z,7.40
2019-03-15T12:47:24.847Z,7.13
2019-03-15T12:49:55.009Z,12.40
2019-03-15T12:52:25.234Z,13.47
2019-03-15T12:54:55.508Z,7.33
2019-03-15T12:57:25.545Z,7.93
2019-03-15T12:59:55.627Z,6.20
2019-03-15T13:02:25.728Z,5.80
2019-03-15T13:04:55.749Z,6.90
2019-03-15T13:07:26.157Z,5.20
2019-03-15T13:09:57.069Z,5.53
2019-03-15T13:12:27.149Z,10.70
2019-03-15T13:14:57.209Z,9.97
2019-03-15T13:17:27.580Z,7.77
2019-03-15T13:19:57.645Z,9.13
2019-03-15T13:22:27.894Z,10.93
2019-03-15T13:24:57.938Z,8.10
2019-03-15T13:27:27.952Z,16.10
2019-03-15T13:29:58.022Z,9.97
2019-03-15T13:32:29.499Z,11.37
2019-03-15T13:34:59.523Z,9.00
2019-03-15T13:37:29.584Z,10.43
2019-03-15T13:39:59.678Z,3.50
2019-03-15T13:42:29.916Z,8.70
2019-03-15T13:45:00.404Z,7.03
2019-03-15T13:47:31.209Z,13.77
2019-03-15T13:50:02.343Z,6.83
2019-03-15T13:52:32.961Z,4.53
2019-03-15T13:55:03.524Z,5.80
2019-03-15T13:57:33.904Z,5.33
2019-03-15T14:00:05.042Z,7.67
2019-03-15T14:02:35.396Z,4.57
2019-03-15T14:05:05.761Z,8.57
2019-03-15T14:07:35.851Z,6.37
2019-03-15T14:10:06.080Z,7.17
2019-03-15T14:12:36.106Z,6.70
2019-03-15T14:15:06.961Z,5.73
2019-03-15T14:17:37.212Z,7.00
2019-03-15T14:20:07.727Z,13.20
2019-03-15T14:22:38.342Z,10.80
2019-03-15T14:25:09.873Z,7.23
2019-03-15T14:27:40.397Z,8.03
2019-03-15T14:30:12.476Z,7.20
2019-03-15T14:32:44.468Z,10.37
2019-03-15T14:35:15.303Z,4.57
2019-03-15T14:37:45.796Z,9.37
2019-03-15T14:40:15.960Z,14.17
2019-03-15T14:42:46.046Z,12.90
2019-03-15T14:45:20.239Z,9.40
2019-03-15T14:47:50.844Z,10.60
2019-03-15T14:50:20.893Z,14.13
2019-03-15T14:52:50.935Z,14.30
2019-03-15T14:55:21.040Z,11.00
2019-03-15T14:57:53.187Z,13.90
2019-03-15T15:00:23.057Z,10.47
2019-03-15T15:02:53.064Z,12.90
2019-03-15T15:05:23.068Z,4.10
2019-03-15T15:07:53.108Z,18.63
2019-03-15T15:10:23.133Z,9.33
2019-03-15T15:12:53.135Z,34.80
2019-03-15T15:15:23.189Z,8.80
2019-03-15T15:17:53.189Z,7.40
2019-03-15T15:20:23.190Z,9.20
2019-03-15T15:22:53.185Z,8.23
2019-03-15T15:25:23.421Z,8.87
2019-03-15T15:28:03.891Z,8.03
2019-03-15T15:30:25.095Z,8.20
2019-03-15T15:32:55.136Z,27.50
2019-03-15T15:35:25.130Z,16.13
2019-03-15T15:37:55.529Z,20.07
2019-03-15T15:40:25.956Z,12.60
2019-03-15T15:42:56.756Z,17.10
2019-03-15T15:45:29.731Z,7.23
2019-03-15T15:47:59.023Z,6.30
2019-03-15T15:50:29.060Z,6.23
2019-03-15T15:52:59.061Z,8.60
2019-03-15T15:55:29.544Z,3.80
2019-03-15T15:57:59.726Z,18.10
2019-03-15T16:00:29.641Z,8.53
2019-03-15T16:02:59.805Z,8.00
2019-03-15T16:05:29.794Z,6.50
2019-03-15T16:07:59.752Z,7.10
2019-03-15T16:10:29.809Z,10.97
2019-03-15T16:13:02.609Z,6.57
2019-03-15T16:15:31.658Z,11.70
2019-03-15T16:18:01.629Z,18.73
2019-03-15T16:20:31.921Z,14.10
2019-03-15T16:23:01.944Z,12.93
2019-03-15T16:25:32.060Z,25.67
2019-03-15T16:28:02.114Z,7.93
2019-03-15T16:30:32.290Z,18.10
2019-03-15T16:33:02.653Z,17.97
2019-03-15T16:35:32.653Z,9.57
2019-03-15T16:38:02.793Z,6.93
2019-03-15T16:40:32.821Z,18.63
2019-03-15T16:43:03.229Z,23.50
2019-03-15T16:45:33.217Z,19.17
2019-03-15T16:48:03.237Z,20.13
2019-03-15T16:50:33.424Z,10.07
2019-03-15T16:53:03.377Z,10.37
2019-03-15T16:55:34.354Z,11.40
2019-03-15T16:58:04.313Z,5.17
2019-03-15T17:00:34.289Z,8.00
2019-03-15T17:03:04.297Z,18.77
2019-03-15T17:05:34.284Z,10.10
2019-03-15T17:08:04.450Z,21.60
2019-03-15T17:10:34.524Z,12.40
2019-03-15T17:13:04.484Z,8.80
2019-03-15T17:15:35.516Z,27.93
2019-03-15T17:18:05.492Z,28.43
2019-03-15T17:20:35.913Z,30.87
2019-03-15T17:23:08.774Z,20.53
2019-03-15T17:25:39.346Z,13.57
2019-03-15T17:28:09.649Z,9.57
2019-03-15T17:30:39.720Z,19.77
2019-03-15T17:33:09.738Z,8.73
2019-03-15T17:35:39.712Z,7.73
2019-03-15T17:38:09.965Z,8.03
2019-03-15T17:40:39.995Z,15.53
2019-03-15T17:43:10.433Z,12.40
2019-03-15T17:45:40.955Z,17.27
2019-03-15T17:48:11.525Z,13.97
2019-03-15T17:50:41.552Z,16.60
2019-03-15T17:53:11.613Z,6.23
2019-03-15T17:55:41.745Z,9.00
2019-03-15T17:58:12.716Z,8.37
2019-03-15T18:00:44.836Z,11.20
2019-03-15T18:03:21.319Z,9.90
2019-03-15T18:05:47.160Z,11.27
2019-03-15T18:08:17.170Z,14.03
2019-03-15T18:10:47.205Z,10.17
2019-03-15T18:13:17.249Z,10.57
2019-03-15T18:15:47.250Z,39.50
2019-03-15T18:18:17.405Z,49.00
2019-03-15T18:20:47.396Z,13.83
2019-03-15T18:23:18.007Z,13.67
2019-03-15T18:25:48.044Z,12.10
2019-03-15T18:28:18.648Z,11.00
2019-03-15T18:30:48.656Z,19.00
2019-03-15T18:33:19.442Z,18.50
2019-03-15T18:35:49.789Z,14.43
2019-03-15T18:38:20.227Z,35.83
2019-03-15T18:40:50.468Z,28.10
2019-03-15T18:43:21.706Z,14.03
2019-03-15T18:45:52.146Z,17.63
2019-03-15T18:48:22.266Z,12.50
2019-03-15T18:50:52.597Z,18.87
2019-03-15T18:53:23.086Z,13.90
2019-03-15T18:55:53.613Z,18.93
2019-03-15T18:58:23.613Z,15.93
2019-03-15T19:00:54.117Z,28.90
2019-03-15T19:03:24.219Z,24.90
2019-03-15T19:05:54.292Z,12.30
2019-03-15T19:08:24.669Z,16.83
2019-03-15T19:10:54.697Z,15.07
2019-03-15T19:13:26.253Z,19.50
2019-03-15T19:15:56.228Z,8.10
2019-03-15T19:18:26.221Z,9.40
2019-03-15T19:20:56.302Z,15.53
2019-03-15T19:23:26.699Z,21.63
2019-03-15T19:25:57.212Z,9.57
2019-03-15T19:28:27.203Z,8.97
2019-03-15T19:30:57.761Z,67.40
2019-03-15T19:33:27.965Z,46.50
2019-03-15T19:35:58.073Z,37.27
2019-03-15T19:38:28.064Z,113.30
2019-03-15T19:40:58.076Z,188.63
2019-03-15T19:43:29.468Z,105.30
2019-03-15T19:45:59.726Z,109.70
2019-03-15T19:48:29.897Z,245.50
2019-03-15T19:51:01.001Z,288.87
2019-03-15T19:53:31.158Z,415.20
2019-03-15T19:56:01.089Z,115.83
2019-03-15T19:58:31.130Z,112.00
2019-03-15T20:01:01.378Z,60.30
2019-03-15T20:03:43.555Z,112.30
2019-03-15T20:06:04.140Z,156.33
2019-03-15T20:08:34.156Z,148.07
2019-03-15T20:11:04.760Z,239.50
2019-03-15T20:13:35.097Z,108.37
2019-03-15T20:16:05.458Z,78.73
2019-03-15T20:18:35.510Z,55.27
2019-03-15T20:21:05.690Z,40.10
2019-03-15T20:23:36.181Z,48.50
2019-03-15T20:26:06.169Z,68.47
2019-03-15T20:28:36.646Z,85.10
2019-03-15T20:31:06.736Z,68.80
2019-03-15T20:33:36.813Z,36.63
2019-03-15T20:36:06.809Z,39.70
2019-03-15T20:38:37.288Z,27.33
2019-03-15T20:41:07.273Z,30.17
2019-03-15T20:43:37.464Z,12.93
2019-03-15T20:46:07.721Z,15.23
2019-03-15T20:48:38.282Z,12.70
2019-03-15T20:51:08.305Z,20.30
2019-03-15T20:53:38.465Z,17.40
2019-03-15T20:56:08.425Z,22.47
2019-03-15T20:58:38.413Z,35.40
2019-03-15T21:01:09.221Z,35.20
2019-03-15T21:03:39.549Z,26.90
2019-03-15T21:06:09.540Z,45.23
2019-03-15T21:08:39.609Z,25.87
2019-03-15T21:11:10.325Z,40.30
2019-03-15T21:13:40.494Z,21.33
2019-03-15T21:16:10.528Z,26.57
2019-03-15T21:18:40.569Z,42.60
2019-03-15T21:21:11.016Z,59.17
2019-03-15T21:23:41.337Z,25.60
2019-03-15T21:26:11.343Z,43.23
2019-03-15T21:28:41.376Z,23.03
2019-03-15T21:31:11.646Z,38.13
2019-03-15T21:33:42.185Z,29.40
2019-03-15T21:36:12.210Z,35.77
2019-03-15T21:38:48.125Z,41.03
2019-03-15T21:41:14.142Z,51.33
2019-03-15T21:43:44.337Z,59.33
2019-03-15T21:46:14.372Z,84.63
2019-03-15T21:48:44.418Z,55.27
2019-03-15T21:51:14.469Z,43.40
2019-03-15T21:53:44.755Z,32.33
2019-03-15T21:56:15.272Z,21.40
2019-03-15T21:58:45.228Z,34.60
2019-03-15T22:01:15.533Z,46.30
2019-03-15T22:03:45.847Z,26.87
2019-03-15T22:06:16.008Z,19.13
2019-03-15T22:08:46.001Z,23.60
2019-03-15T22:11:21.184Z,22.83
2019-03-15T22:13:47.776Z,34.03
2019-03-15T22:16:17.957Z,21.67
2019-03-15T22:18:48.073Z,34.70
2019-03-15T22:21:18.572Z,27.53
2019-03-15T22:23:49.169Z,28.57
2019-03-15T22:26:19.569Z,39.53
2019-03-15T22:28:49.553Z,21.40
2019-03-15T22:31:19.756Z,21.93
2019-03-15T22:33:50.017Z,27.23
2019-03-15T22:36:20.729Z,34.87
2019-03-15T22:38:51.144Z,37.83
2019-03-15T22:41:21.164Z,48.07
2019-03-15T22:43:51.215Z,56.33
2019-03-15T22:46:21.479Z,44.13
2019-03-15T22:48:51.757Z,30.03
2019-03-15T22:51:21.890Z,44.07
2019-03-15T22:53:53.159Z,23.77
2019-03-15T22:56:23.185Z,36.07
2019-03-15T22:58:53.181Z,51.43
2019-03-15T23:01:30.250Z,56.47
2019-03-15T23:03:55.330Z,34.37
2019-03-15T23:06:26.115Z,47.93
2019-03-15T23:08:56.300Z,38.40
2019-03-15T23:11:26.408Z,49.47
2019-03-15T23:13:56.568Z,27.80
2019-03-15T23:16:26.621Z,21.20
2019-03-15T23:18:57.028Z,32.63
2019-03-15T23:21:27.071Z,64.20
2019-03-15T23:23:57.097Z,26.13
2019-03-15T23:26:27.519Z,56.63
2019-03-15T23:28:57.540Z,50.93
2019-03-15T23:31:27.504Z,22.13
2019-03-15T23:33:57.545Z,33.87
2019-03-15T23:36:28.012Z,24.67
2019-03-15T23:38:58.013Z,29.23
2019-03-15T23:41:28.013Z,16.53
2019-03-15T23:43:58.330Z,29.57
2019-03-15T23:46:28.309Z,23.77
2019-03-15T23:48:58.269Z,83.13
2019-03-15T23:51:28.459Z,46.33
2019-03-15T23:53:58.581Z,31.63
2019-03-15T23:56:28.609Z,63.87
2019-03-15T23:58:58.666Z,26.60
